Time;durP1;ratioP1;P1;durP2;ratioP2;P2;SDS_P1;SDS_P2;PMS_P1;PMS_P2;Temp;Humidity;BMP_temperature;BMP_pressure;BME280_temperature;BME280_humidity;BME280_pressure;Samples;Min_cycle;Max_cycle;Signal;HPM_P1;HPM_P2
2021/07/26 00:00:27;;;;;;;23.95;19.92;;;;;;;21.04;81.79;99634.66;2744760;86;21056;-61
2021/07/26 00:04:30;;;;;;;29.82;22.50;;;;;;;21.07;81.67;99633.70;2744284;85;21121;-60
2021/07/26 00:08:33;;;;;;;26.37;19.98;;;;;;;21.09;81.52;99627.55;2744786;86;21040;-61
2021/07/26 00:12:35;;;;;;;27.52;21.33;;;;;;;21.11;81.30;99626.00;2744670;86;21053;-62
2021/07/26 00:16:37;;;;;;;28.05;23.32;;;;;;;21.14;81.33;99620.17;2744523;86;21053;-63
2021/07/26 00:20:39;;;;;;;27.50;21.23;;;;;;;21.12;81.18;99610.91;2744992;86;21024;-61
2021/07/26 00:24:40;;;;;;;23.15;19.10;;;;;;;21.12;81.17;99608.73;2749129;86;21546;-60
2021/07/26 00:28:43;;;;;;;30.35;21.27;;;;;;;21.17;81.12;99612.98;2748979;86;21016;-63
2021/07/26 00:32:45;;;;;;;29.75;20.60;;;;;;;21.19;81.26;99617.66;2749173;86;21104;-63
2021/07/26 00:36:51;;;;;;;26.00;21.27;;;;;;;21.22;80.82;99611.84;2748933;86;21060;-62
2021/07/26 00:40:53;;;;;;;25.55;20.92;;;;;;;21.20;80.59;99615.25;2748805;86;21084;-62
2021/07/26 00:44:54;;;;;;;30.43;19.02;;;;;;;21.14;80.40;99611.24;2748946;86;21005;-61
2021/07/26 00:48:58;;;;;;;24.80;20.92;;;;;;;21.10;80.53;99616.23;2749300;86;21550;-60
2021/07/26 00:53:00;;;;;;;24.67;20.80;;;;;;;21.06;80.71;99615.81;2748972;86;21028;-62
2021/07/26 00:57:05;;;;;;;25.45;22.17;;;;;;;21.02;80.77;99617.80;2748816;86;21142;-62
2021/07/26 01:01:07;;;;;;;20.08;17.98;;;;;;;20.99;80.98;99624.47;2749114;86;21076;-62
2021/07/26 01:05:10;;;;;;;29.30;21.27;;;;;;;20.92;80.99;99624.48;2748764;85;21573;-60
2021/07/26 01:09:18;;;;;;;27.35;19.92;;;;;;;20.92;81.33;99628.53;2749033;86;21032;-61
2021/07/26 01:13:24;;;;;;;23.27;18.55;;;;;;;20.83;81.09;99628.42;2749177;86;21020;-63
2021/07/26 01:17:38;;;;;;;30.95;22.58;;;;;;;20.63;81.61;99622.48;2748243;86;21568;-62
2021/07/26 01:21:40;;;;;;;26.20;20.97;;;;;;;20.57;81.59;99619.27;2747002;86;21041;-62
2021/07/26 01:25:41;;;;;;;27.98;19.57;;;;;;;20.48;81.56;99624.59;2748759;86;21067;-61
2021/07/26 01:29:44;;;;;;;29.52;20.17;;;;;;;20.44;82.00;99624.16;2748770;86;21012;-63
2021/07/26 01:33:47;;;;;;;26.65;21.40;;;;;;;20.47;82.26;99624.27;2748713;86;21072;-62
2021/07/26 01:37:49;;;;;;;37.40;22.37;;;;;;;20.44;81.93;99631.42;2728179;86;21028;-62
2021/07/26 01:41:54;;;;;;;32.42;23.25;;;;;;;20.44;82.23;99635.47;2742119;86;21062;-62
2021/07/26 01:46:28;;;;;;;28.02;22.32;;;;;;;20.47;82.28;99632.38;2725600;86;21072;-63
2021/07/26 01:50:40;;;;;;;31.00;21.87;;;;;;;20.47;82.53;99630.49;2748286;86;21037;-61
2021/07/26 01:54:42;;;;;;;30.57;21.37;;;;;;;20.37;82.80;99631.44;2708089;86;21056;-61
2021/07/26 01:58:44;;;;;;;24.87;20.77;;;;;;;20.34;83.09;99628.63;2701662;88;21060;-63
2021/07/26 02:02:45;;;;;;;23.38;19.45;;;;;;;20.31;83.46;99631.73;2701474;88;21001;-60
2021/07/26 02:06:48;;;;;;;26.97;18.60;;;;;;;20.37;83.59;99624.69;2701344;88;21080;-61
2021/07/26 02:10:50;;;;;;;25.25;20.45;;;;;;;20.38;82.98;99624.46;2701658;88;21067;-61
2021/07/26 02:14:52;;;;;;;29.87;22.32;;;;;;;20.39;82.81;99619.37;2702091;88;21068;-62
2021/07/26 02:18:54;;;;;;;30.50;23.25;;;;;;;20.35;82.79;99620.83;2701583;88;20976;-60
2021/07/26 02:22:55;;;;;;;25.55;21.00;;;;;;;20.35;82.87;99605.16;2725596;85;21103;-64
2021/07/26 02:26:57;;;;;;;31.23;21.70;;;;;;;20.24;82.98;99608.77;2741898;86;21012;-60
2021/07/26 02:30:59;;;;;;;26.80;21.73;;;;;;;20.11;83.71;99614.98;2741919;86;21020;-61
2021/07/26 02:35:01;;;;;;;26.50;21.15;;;;;;;20.02;83.74;99605.94;2741560;86;21012;-61
2021/07/26 02:39:08;;;;;;;24.23;21.80;;;;;;;20.01;84.27;99598.88;2741676;86;21055;-60
2021/07/26 02:43:09;;;;;;;29.20;22.35;;;;;;;20.03;84.16;99607.59;2741570;86;21028;-62
2021/07/26 02:47:12;;;;;;;25.62;21.97;;;;;;;19.94;84.12;99609.12;2741869;86;21036;-63
2021/07/26 02:51:14;;;;;;;27.30;21.12;;;;;;;19.95;84.69;99605.42;2741497;86;21035;-62
2021/07/26 02:55:16;;;;;;;26.68;21.37;;;;;;;20.01;84.46;99615.08;2741489;86;21059;-63
2021/07/26 02:59:18;;;;;;;27.70;20.72;;;;;;;20.04;84.37;99618.17;2741519;86;21068;-62
2021/07/26 03:03:19;;;;;;;34.63;21.00;;;;;;;20.08;84.36;99626.20;2741651;86;21028;-63
2021/07/26 03:07:21;;;;;;;27.73;20.92;;;;;;;20.14;84.41;99631.81;2741182;86;21091;-63
2021/07/26 03:11:23;;;;;;;26.52;21.35;;;;;;;20.16;84.92;99635.14;2741689;86;21063;-61
2021/07/26 03:15:25;;;;;;;32.10;22.67;;;;;;;20.21;85.47;99642.09;2741427;86;21044;-63
2021/07/26 03:19:30;;;;;;;26.93;23.67;;;;;;;20.25;85.81;99640.13;2741640;86;21071;-60
2021/07/26 03:23:32;;;;;;;29.48;22.13;;;;;;;20.17;86.09;99644.89;2742438;86;21083;-62
2021/07/26 03:27:35;;;;;;;28.85;24.12;;;;;;;20.06;86.22;99648.52;2742523;86;21032;-60
2021/07/26 03:31:40;;;;;;;28.38;20.45;;;;;;;20.07;87.10;99644.78;2742923;86;21000;-62
2021/07/26 03:35:42;;;;;;;27.65;21.45;;;;;;;20.11;86.80;99648.73;2742700;86;21055;-61
2021/07/26 03:39:43;;;;;;;29.98;22.05;;;;;;;20.00;87.15;99646.62;2743050;86;21636;-62
2021/07/26 03:43:45;;;;;;;32.78;22.62;;;;;;;20.03;88.17;99654.84;2742941;86;21036;-62
2021/07/26 03:47:55;;;;;;;27.52;22.07;;;;;;;20.09;87.83;99660.26;2742810;86;21028;-62
2021/07/26 03:51:56;;;;;;;25.50;22.48;;;;;;;20.25;88.30;99660.92;2742922;86;21048;-63
2021/07/26 03:55:58;;;;;;;30.08;22.07;;;;;;;20.30;87.68;99663.83;2742969;86;21095;-63
2021/07/26 03:59:59;;;;;;;30.52;23.32;;;;;;;20.28;87.50;99654.27;2742828;86;21012;-62
2021/07/26 04:04:01;;;;;;;29.57;20.88;;;;;;;20.19;87.39;99653.12;2742845;86;21032;-62
2021/07/26 04:08:08;;;;;;;28.05;20.68;;;;;;;20.22;88.57;99649.16;2742733;85;21072;-64
2021/07/26 04:12:15;;;;;;;27.30;21.73;;;;;;;20.21;88.79;99647.49;2743000;86;21024;-61
2021/07/26 04:16:14;;;;;;;26.93;23.07;;;;;;;20.22;89.03;99649.16;2742410;86;21565;-61
2021/07/26 04:20:15;;;;;;;27.45;24.40;;;;;;;20.26;89.71;99651.78;2742826;86;21048;-61
2021/07/26 04:24:17;;;;;;;31.48;26.97;;;;;;;20.28;89.43;99649.70;2742744;86;21076;-60
2021/07/26 04:28:19;;;;;;;31.57;25.25;;;;;;;20.25;89.63;99644.72;2743195;86;21051;-60
2021/07/26 04:32:21;;;;;;;29.52;25.57;;;;;;;20.29;89.77;99654.06;2743004;86;21043;-61
2021/07/26 04:36:23;;;;;;;36.38;23.90;;;;;;;20.29;89.77;99651.37;2742852;86;21060;-62
2021/07/26 04:40:25;;;;;;;27.90;22.65;;;;;;;20.32;90.04;99651.45;2743182;86;21024;-61
2021/07/26 04:44:26;;;;;;;29.92;23.52;;;;;;;20.38;90.03;99657.41;2742516;86;21091;-61
2021/07/26 04:48:28;;;;;;;32.45;26.52;;;;;;;20.51;89.99;99660.63;2742137;86;21489;-63
2021/07/26 04:52:30;;;;;;;40.30;25.67;;;;;;;20.63;89.41;99672.47;2741968;86;21040;-62
2021/07/26 04:56:31;;;;;;;30.50;24.98;;;;;;;20.73;88.85;99672.59;2742289;86;21043;-63
2021/07/26 05:00:33;;;;;;;35.05;26.23;;;;;;;20.86;88.40;99671.28;2742206;86;21537;-61
2021/07/26 05:04:35;;;;;;;58.28;47.45;;;;;;;20.94;87.95;99664.30;2742087;86;21115;-63
2021/07/26 05:08:37;;;;;;;34.30;26.93;;;;;;;20.98;87.99;99673.64;2742117;86;21341;-62
2021/07/26 05:12:40;;;;;;;29.75;26.55;;;;;;;21.07;87.81;99668.84;2742007;86;21043;-62
2021/07/26 05:16:41;;;;;;;34.98;24.32;;;;;;;21.21;87.73;99668.84;2742191;86;21056;-62
2021/07/26 05:20:43;;;;;;;32.80;26.17;;;;;;;21.32;87.58;99672.26;2742429;86;21020;-62
2021/07/26 05:24:46;;;;;;;28.83;25.35;;;;;;;21.45;87.15;99676.80;2707850;86;21045;-62
2021/07/26 05:28:47;;;;;;;29.75;24.98;;;;;;;21.48;86.43;99681.78;2696433;88;21024;-61
2021/07/26 05:32:49;;;;;;;27.90;23.10;;;;;;;21.63;86.83;99682.86;2696553;88;21019;-63
2021/07/26 05:36:51;;;;;;;35.98;24.95;;;;;;;21.75;86.45;99697.94;2696307;88;21020;-62
2021/07/26 05:40:53;;;;;;;32.78;24.25;;;;;;;21.71;86.27;99694.01;2696289;88;21025;-60
2021/07/26 05:44:56;;;;;;;30.65;24.23;;;;;;;21.71;86.27;99695.87;2696745;88;21066;-62
2021/07/26 05:48:59;;;;;;;25.20;22.48;;;;;;;21.63;87.22;99694.23;2696837;88;21027;-62
2021/07/26 05:53:05;;;;;;;33.53;23.55;;;;;;;21.54;87.41;99699.86;2697035;88;21017;-63
2021/07/26 05:57:12;;;;;;;25.68;22.65;;;;;;;21.58;87.76;99694.86;2696793;88;21007;-63
2021/07/26 06:05:22;;;;;;;32.30;24.30;;;;;;;21.70;88.95;99704.53;2658826;89;20134;-63
2021/07/26 06:09:26;;;;;;;33.63;23.65;;;;;;;21.80;88.57;99708.13;2658926;89;21065;-60
2021/07/26 06:13:28;;;;;;;30.62;24.92;;;;;;;21.91;88.55;99705.28;2659260;89;21017;-62
2021/07/26 06:17:30;;;;;;;31.77;24.45;;;;;;;21.94;87.70;99709.75;2659192;89;30571;-63
2021/07/26 06:21:32;;;;;;;31.55;26.23;;;;;;;22.07;87.98;99715.62;2659109;89;21052;-63
2021/07/26 06:25:34;;;;;;;31.00;27.62;;;;;;;22.20;86.86;99724.70;2669820;89;21079;-62
2021/07/26 06:29:39;;;;;;;33.55;28.65;;;;;;;22.31;87.07;99721.87;2670986;89;21457;-60
2021/07/26 06:33:41;;;;;;;30.97;26.95;;;;;;;22.45;86.17;99721.25;2670983;89;21088;-63
2021/07/26 06:37:44;;;;;;;32.10;27.42;;;;;;;22.38;86.46;99723.45;2670595;89;21095;-61
2021/07/26 06:41:46;;;;;;;32.40;25.52;;;;;;;22.44;86.68;99723.66;2670930;89;21028;-63
2021/07/26 06:45:48;;;;;;;29.27;25.62;;;;;;;22.43;85.94;99726.06;2670804;89;21016;-62
2021/07/26 06:49:49;;;;;;;34.15;26.45;;;;;;;22.51;86.26;99729.38;2670841;89;21081;-62
2021/07/26 06:53:51;;;;;;;31.95;24.57;;;;;;;22.56;85.95;99728.70;2671116;89;21067;-63
2021/07/26 06:57:54;;;;;;;32.60;26.65;;;;;;;22.68;85.37;99722.89;2671081;89;21099;-62
2021/07/26 07:01:56;;;;;;;29.72;25.30;;;;;;;22.91;85.54;99728.78;2671244;89;21050;-62
2021/07/26 07:06:06;;;;;;;32.48;25.97;;;;;;;23.36;84.91;99722.33;2671228;89;21095;-62
2021/07/26 07:10:09;;;;;;;29.48;24.43;;;;;;;24.01;84.26;99726.42;2670721;89;21059;-62
2021/07/26 07:14:11;;;;;;;30.80;23.75;;;;;;;24.36;81.54;99727.65;2671572;89;21028;-62
2021/07/26 07:18:13;;;;;;;24.55;18.67;;;;;;;24.47;80.73;99726.87;2671689;89;21027;-62
2021/07/26 07:22:20;;;;;;;23.70;18.85;;;;;;;24.55;80.44;99731.12;2671679;89;20996;-61
2021/07/26 07:26:23;;;;;;;24.30;20.05;;;;;;;24.54;80.97;99724.03;2667414;89;21603;-62
2021/07/26 07:30:25;;;;;;;26.00;20.02;;;;;;;24.76;80.35;99722.16;2667743;89;21055;-61
2021/07/26 07:34:27;;;;;;;25.05;20.70;;;;;;;25.25;81.22;99719.23;2667584;89;21068;-61
2021/07/26 07:38:29;;;;;;;27.05;22.02;;;;;;;25.86;78.36;99723.05;2668077;89;21071;-62
2021/07/26 07:42:33;;;;;;;22.05;19.67;;;;;;;26.51;76.55;99722.91;2667977;89;21074;-62
2021/07/26 07:46:35;;;;;;;24.90;21.68;;;;;;;27.06;74.10;99717.31;2668137;89;21140;-63
2021/07/26 07:50:37;;;;;;;24.60;20.08;;;;;;;27.53;71.33;99713.08;2668388;89;21064;-63
2021/07/26 07:54:39;;;;;;;25.88;21.50;;;;;;;27.86;70.05;99720.85;2668400;89;21099;-61
2021/07/26 07:58:52;;;;;;;24.20;20.52;;;;;;;28.07;68.98;99720.56;2668327;89;21067;-63
2021/07/26 08:02:53;;;;;;;22.30;18.75;;;;;;;28.40;67.92;99722.86;2687153;88;20957;-62
2021/07/26 08:06:56;;;;;;;20.82;18.40;;;;;;;28.79;67.84;99730.03;2687550;88;21092;-62
2021/07/26 08:10:58;;;;;;;22.30;18.12;;;;;;;29.10;66.67;99735.78;2687447;88;21012;-62
2021/07/26 08:14:59;;;;;;;19.17;17.30;;;;;;;29.33;65.83;99730.99;2687713;88;21076;-63
2021/07/26 08:19:07;;;;;;;21.15;17.25;;;;;;;29.45;64.59;99726.14;2687537;88;21072;-62
2021/07/26 08:23:10;;;;;;;20.70;17.90;;;;;;;29.76;63.24;99740.00;2687323;88;21032;-62
2021/07/26 08:27:12;;;;;;;20.77;18.17;;;;;;;30.00;61.32;99746.39;2687047;88;21594;-62
2021/07/26 08:31:14;;;;;;;19.67;17.57;;;;;;;30.00;61.32;99746.39;2687304;88;21071;-62
2021/07/26 08:35:18;;;;;;;19.80;17.15;;;;;;;30.01;61.58;99736.27;2686874;88;21053;-61
2021/07/26 08:39:20;;;;;;;19.27;17.27;;;;;;;30.02;61.58;99751.09;2687526;88;21044;-64
2021/07/26 08:43:23;;;;;;;18.45;16.32;;;;;;;30.07;60.77;99750.29;2687457;88;21032;-63
2021/07/26 08:47:29;;;;;;;18.30;16.20;;;;;;;30.11;60.71;99749.22;2687787;88;21021;-63
2021/07/26 08:51:31;;;;;;;19.42;17.07;;;;;;;30.14;59.70;99749.48;2687522;88;21008;-62
2021/07/26 08:55:34;;;;;;;19.50;17.40;;;;;;;30.15;60.95;99749.75;2687770;88;21009;-61
2021/07/26 08:59:56;;;;;;;19.85;17.75;;;;;;;30.16;60.91;99741.00;2687591;88;21068;-63
2021/07/26 09:03:58;;;;;;;20.57;18.32;;;;;;;30.15;59.76;99737.98;2687555;88;21021;-63
2021/07/26 09:08:02;;;;;;;22.42;20.02;;;;;;;30.30;58.98;99746.25;2687373;88;21557;-62
2021/07/26 09:12:04;;;;;;;26.80;19.15;;;;;;;30.35;59.12;99743.51;2687272;88;21129;-61
2021/07/26 09:16:56;;;;;;;19.02;17.02;;;;;;;30.42;59.99;99744.63;2687199;88;21025;-63
2021/07/26 09:20:58;;;;;;;23.55;18.75;;;;;;;30.41;59.10;99751.20;2686809;88;21547;-63
2021/07/26 09:25:26;;;;;;;19.50;17.45;;;;;;;30.60;59.86;99748.75;2690421;88;21044;-63
2021/07/26 09:29:45;;;;;;;18.27;16.45;;;;;;;30.68;58.51;99742.49;2758195;86;21023;-63
2021/07/26 09:33:46;;;;;;;22.37;19.52;;;;;;;30.54;58.43;99742.98;2757887;86;21071;-62
2021/07/26 09:38:03;;;;;;;21.70;19.35;;;;;;;30.68;59.78;99746.05;2733534;86;20980;-61
2021/07/26 09:42:04;;;;;;;22.27;19.90;;;;;;;30.72;58.61;99748.51;2758078;86;21059;-62
2021/07/26 09:46:07;;;;;;;28.47;22.05;;;;;;;30.74;58.56;99746.88;2757897;86;20984;-61
2021/07/26 09:50:11;;;;;;;23.65;21.10;;;;;;;30.53;59.22;99741.34;2758324;86;21071;-62
2021/07/26 09:54:13;;;;;;;30.62;21.57;;;;;;;30.28;59.32;99742.95;2758139;86;21004;-64
2021/07/26 09:58:40;;;;;;;27.32;21.80;;;;;;;30.19;59.13;99746.77;2757922;86;21016;-64
2021/07/26 10:02:42;;;;;;;22.15;19.67;;;;;;;30.02;61.05;99745.61;2758005;86;21050;-64
2021/07/26 10:06:45;;;;;;;25.97;20.97;;;;;;;29.90;60.81;99744.44;2757766;86;21028;-63
2021/07/26 10:10:47;;;;;;;21.80;19.50;;;;;;;29.88;61.09;99749.93;2758004;86;21000;-63
2021/07/26 10:14:50;;;;;;;30.80;21.30;;;;;;;29.75;60.93;99744.38;2757746;86;21020;-64
2021/07/26 10:18:58;;;;;;;27.37;19.75;;;;;;;29.51;61.63;99755.77;2758013;86;21032;-62
2021/07/26 10:23:14;;;;;;;25.45;21.05;;;;;;;29.15;63.17;99727.59;2757402;86;21050;-61
2021/07/26 10:27:28;;;;;;;21.35;19.07;;;;;;;29.15;63.17;99727.59;2744828;86;21083;-62
2021/07/26 10:31:37;;;;;;;23.77;19.30;;;;;;;29.66;61.77;99741.31;2745196;85;21035;-63
2021/07/26 10:35:55;;;;;;;22.02;19.67;;;;;;;29.97;61.68;99749.68;2746186;86;20981;-63
2021/07/26 10:40:41;;;;;;;25.45;19.57;;;;;;;30.31;60.67;99752.02;2746294;86;21051;-63
2021/07/26 10:44:43;;;;;;;;;;;;;;;30.56;61.18;99743.53;2748802;86;21052;-62
2021/07/26 10:48:52;;;;;;;23.67;19.25;;;;;;;30.90;59.09;99738.08;2746194;86;20138;-62
2021/07/26 10:52:53;;;;;;;23.73;18.30;;;;;;;30.90;58.38;99739.45;2746318;86;21000;-64
2021/07/26 10:57:15;;;;;;;19.48;17.48;;;;;;;30.67;58.78;99733.42;2746060;86;21012;-63
2021/07/26 11:01:28;;;;;;;17.85;15.78;;;;;;;30.77;57.76;99731.22;2746305;86;21059;-64
2021/07/26 11:05:32;;;;;;;18.23;16.05;;;;;;;31.07;58.55;99728.20;2746251;86;21063;-63
2021/07/26 11:09:47;;;;;;;22.25;17.37;;;;;;;31.36;57.23;99726.23;2745771;86;21130;-62
2021/07/26 11:13:54;;;;;;;18.55;15.63;;;;;;;31.37;57.52;99725.13;2745989;86;21008;-62
2021/07/26 11:18:29;;;;;;;19.92;17.82;;;;;;;31.33;57.20;99720.73;2746043;86;21011;-62
2021/07/26 11:22:39;;;;;;;19.90;17.80;;;;;;;31.35;57.34;99721.84;2698897;86;21052;-64
2021/07/26 11:26:50;;;;;;;21.20;17.48;;;;;;;31.25;57.38;99723.23;2708798;86;21076;-61
2021/07/26 11:30:52;;;;;;;18.67;16.50;;;;;;;31.34;58.78;99717.45;2700268;88;20961;-62
2021/07/26 11:34:57;;;;;;;21.10;17.17;;;;;;;31.43;56.23;99724.00;2700418;88;21439;-63
2021/07/26 11:39:18;;;;;;;;;;;;;;;31.55;57.21;99713.27;2702756;88;21028;-63
2021/07/26 11:43:39;;;;;;;22.80;16.70;;;;;;;31.58;56.34;99708.58;2708456;87;20109;-63
2021/07/26 11:47:49;;;;;;;21.45;17.17;;;;;;;31.52;56.24;99709.14;2700469;88;21109;-64
2021/07/26 11:52:07;;;;;;;18.85;15.88;;;;;;;31.63;55.67;99698.39;2699746;87;21318;-62
2021/07/26 11:56:20;;;;;;;23.27;15.28;;;;;;;31.54;56.96;99700.62;2691451;88;21058;-64
2021/07/26 12:00:34;;;;;;;18.20;16.05;;;;;;;31.51;56.74;99700.62;2700258;88;21083;-61
2021/07/26 12:04:36;;;;;;;18.90;16.95;;;;;;;31.64;55.24;99695.08;2700454;88;21072;-61
2021/07/26 12:08:41;;;;;;;17.05;15.32;;;;;;;31.73;56.18;99698.06;2699992;88;21028;-62
2021/07/26 12:12:49;;;;;;;16.45;14.70;;;;;;;31.96;56.26;99697.98;2700538;88;21561;-63
2021/07/26 12:17:09;;;;;;;16.45;14.58;;;;;;;32.00;55.35;99696.30;2700497;88;21024;-62
2021/07/26 12:21:11;;;;;;;18.25;15.70;;;;;;;32.02;54.82;99696.84;2700168;86;21032;-63
2021/07/26 12:25:22;;;;;;;14.53;13.00;;;;;;;31.87;53.93;99699.70;2668934;89;20992;-62
2021/07/26 12:29:31;;;;;;;28.12;16.52;;;;;;;31.70;54.60;99705.50;2674955;89;21064;-64
2021/07/26 12:33:33;;;;;;;19.75;14.85;;;;;;;31.61;54.55;99706.63;2674989;89;22415;-63
2021/07/26 12:38:19;;;;;;;17.90;15.50;;;;;;;31.54;55.03;99707.50;2675333;89;21060;-62
2021/07/26 12:42:22;;;;;;;17.40;13.50;;;;;;;31.63;55.30;99696.18;2676570;89;21103;-62
2021/07/26 12:46:33;;;;;;;18.37;14.47;;;;;;;31.85;55.33;99697.78;2675355;89;21071;-62
2021/07/26 12:50:37;;;;;;;16.80;13.58;;;;;;;32.10;55.24;99692.67;2674872;89;21038;-65
2021/07/26 12:54:46;;;;;;;16.02;13.55;;;;;;;32.17;53.98;99690.44;2673458;89;21361;-66
2021/07/26 12:58:49;;;;;;;16.70;14.93;;;;;;;32.08;54.32;99696.83;2673503;89;21064;-67
2021/07/26 13:02:51;;;;;;;14.68;13.18;;;;;;;32.16;54.21;99692.09;2673245;89;21043;-67
2021/07/26 13:07:03;;;;;;;16.42;14.58;;;;;;;32.18;54.51;99695.38;2673164;89;21132;-63
2021/07/26 13:11:04;;;;;;;17.87;14.95;;;;;;;32.19;54.05;99701.14;2673864;89;21031;-64
2021/07/26 13:15:07;;;;;;;15.88;14.18;;;;;;;32.14;54.28;99691.02;2673618;89;21032;-64
2021/07/26 13:19:10;;;;;;;17.32;15.30;;;;;;;32.08;54.36;99700.95;2673796;89;21020;-64
2021/07/26 13:23:12;;;;;;;16.20;14.15;;;;;;;31.83;54.33;99699.43;2673738;89;21055;-64
2021/07/26 13:27:16;;;;;;;35.83;18.50;;;;;;;31.83;56.18;99698.59;2673872;89;21012;-67
2021/07/26 13:31:18;;;;;;;14.43;12.98;;;;;;;31.94;55.44;99697.45;2692678;86;21055;-66
2021/07/26 13:35:21;;;;;;;17.45;15.60;;;;;;;32.10;55.02;99693.23;2798497;85;21098;-66
2021/07/26 13:39:42;;;;;;;16.25;14.55;;;;;;;32.17;54.95;99688.23;2798870;85;21103;-66
2021/07/26 13:43:44;;;;;;;16.45;14.65;;;;;;;32.15;54.06;99689.91;2798626;85;21059;-67
2021/07/26 13:47:49;;;;;;;15.98;14.20;;;;;;;32.22;54.36;99676.38;2798482;85;21020;-67
2021/07/26 13:51:50;;;;;;;;;;;;;;;32.49;53.20;99673.17;2801173;85;21050;-66
2021/07/26 13:55:52;;;;;;;14.93;12.73;;;;;;;32.77;52.39;99672.09;2798787;85;20112;-66
2021/07/26 13:59:59;;;;;;;18.40;14.20;;;;;;;32.94;51.73;99666.73;2798902;85;20984;-67
2021/07/26 14:04:02;;;;;;;19.77;14.18;;;;;;;33.21;52.35;99658.45;2798761;85;21055;-67
2021/07/26 14:08:05;;;;;;;16.77;14.43;;;;;;;33.33;50.84;99660.25;2798084;83;21047;-66
2021/07/26 14:12:07;;;;;;;16.37;13.05;;;;;;;33.41;50.33;99654.09;2798840;85;20992;-65
2021/07/26 14:16:09;;;;;;;17.87;11.93;;;;;;;33.48;49.61;99655.12;2798694;85;21051;-66
2021/07/26 14:20:12;;;;;;;14.33;12.58;;;;;;;33.39;48.50;99651.37;2798760;85;21024;-66
2021/07/26 14:24:15;;;;;;;15.68;12.03;;;;;;;33.32;48.43;99651.72;2798794;85;21063;-66
2021/07/26 14:28:24;;;;;;;13.50;12.20;;;;;;;33.21;48.88;99654.31;2798511;85;21024;-65
2021/07/26 14:32:26;;;;;;;26.05;13.28;;;;;;;32.84;49.96;99658.83;2798896;85;21074;-66
2021/07/26 14:36:33;;;;;;;13.58;11.80;;;;;;;32.71;50.38;99662.25;2798658;85;21055;-66
2021/07/26 14:40:35;;;;;;;12.53;11.22;;;;;;;32.77;49.97;99665.21;2795935;85;21023;-66
2021/07/26 14:44:39;;;;;;;14.78;13.25;;;;;;;32.88;49.84;99662.67;2748712;85;21051;-65
2021/07/26 14:49:03;;;;;;;14.57;11.90;;;;;;;32.99;51.07;99661.17;2748866;86;21027;-66
2021/07/26 14:53:20;;;;;;;13.83;11.67;;;;;;;33.05;49.85;99656.70;2748830;86;21079;-66
2021/07/26 14:57:22;;;;;;;12.88;11.38;;;;;;;33.08;48.83;99657.22;2747779;85;21000;-66
2021/07/26 15:01:24;;;;;;;15.68;12.55;;;;;;;33.00;49.16;99653.17;2748346;86;20976;-65
2021/07/26 15:05:26;;;;;;;15.25;11.88;;;;;;;32.93;49.13;99644.45;2748094;86;21063;-66
2021/07/26 15:09:31;;;;;;;15.72;12.45;;;;;;;32.94;50.34;99635.91;2748421;86;21046;-66
2021/07/26 15:13:33;;;;;;;13.88;11.90;;;;;;;32.80;49.33;99635.72;2748605;85;20992;-66
2021/07/26 15:17:37;;;;;;;17.95;13.58;;;;;;;32.75;50.08;99627.52;2748368;86;21028;-65
2021/07/26 15:21:38;;;;;;;15.00;13.47;;;;;;;32.52;51.42;99619.47;2748657;86;21000;-66
2021/07/26 15:25:41;;;;;;;18.02;14.90;;;;;;;32.23;51.34;99632.09;2747460;86;21087;-66
2021/07/26 15:29:42;;;;;;;17.57;14.30;;;;;;;31.95;52.14;99630.91;2748477;86;21020;-65
2021/07/26 15:33:44;;;;;;;22.50;14.03;;;;;;;31.70;53.25;99638.99;2747963;86;21023;-64
2021/07/26 15:38:02;;;;;;;21.17;14.00;;;;;;;31.41;53.40;99652.03;2748396;86;20972;-64
2021/07/26 15:42:05;;;;;;;16.62;14.30;;;;;;;31.13;54.41;99663.08;2748420;85;21024;-64
2021/07/26 15:46:31;;;;;;;16.20;14.05;;;;;;;30.89;54.72;99653.54;2748401;86;21063;-64
2021/07/26 15:50:33;;;;;;;16.23;14.53;;;;;;;30.69;55.04;99660.43;2748610;86;21032;-65
2021/07/26 15:54:35;;;;;;;17.07;14.78;;;;;;;30.44;55.64;99658.75;2748583;86;21020;-64
2021/07/26 15:58:44;;;;;;;26.55;16.30;;;;;;;30.38;55.98;99668.09;2748020;86;21611;-64
2021/07/26 16:02:46;;;;;;;22.60;15.68;;;;;;;30.32;57.33;99668.63;2748483;86;21015;-64
2021/07/26 16:06:48;;;;;;;20.35;12.90;;;;;;;30.34;58.35;99665.06;2748089;86;21044;-64
2021/07/26 16:10:50;;;;;;;20.23;15.23;;;;;;;30.23;60.96;99658.47;2754351;85;21007;-64
2021/07/26 16:14:51;;;;;;;16.87;12.82;;;;;;;30.06;60.97;99649.38;2798677;84;21059;-64
2021/07/26 16:18:54;;;;;;;15.13;12.55;;;;;;;29.93;61.07;99641.66;2798585;85;21035;-64
2021/07/26 16:22:58;;;;;;;15.15;13.08;;;;;;;29.85;60.42;99638.06;2798482;85;21067;-64
2021/07/26 16:27:26;;;;;;;14.95;12.43;;;;;;;29.74;61.86;99635.31;2770891;85;21018;-64
2021/07/26 16:31:31;;;;;;;29.60;25.70;;;;;;;29.71;61.55;99642.70;2754130;86;20952;-65
2021/07/26 16:35:33;;;;;;;32.13;18.57;;;;;;;29.69;61.39;99665.98;2754091;86;21067;-65
2021/07/26 16:39:49;;;;;;;20.10;15.58;;;;;;;29.68;60.92;99670.66;2754170;86;20972;-65
2021/07/26 16:43:50;;;;;;;18.42;12.80;;;;;;;29.69;61.32;99670.93;2714153;86;21001;-65
2021/07/26 16:47:54;;;;;;;13.13;10.18;;;;;;;29.64;62.86;99673.63;2708626;87;21016;-65
2021/07/26 16:51:57;;;;;;;15.40;10.90;;;;;;;29.44;63.21;99668.34;2708273;88;21048;-65
2021/07/26 16:55:59;;;;;;;15.20;8.63;;;;;;;29.16;64.48;99667.63;2708494;87;21060;-65
2021/07/26 17:00:01;;;;;;;10.85;8.28;;;;;;;28.21;66.93;99642.56;2708359;87;21071;-65
2021/07/26 17:04:06;;;;;;;13.43;8.73;;;;;;;27.89;67.61;99666.52;2708464;88;21081;-65
2021/07/26 17:08:52;;;;;;;6.92;6.22;;;;;;;27.89;67.61;99666.52;2709324;88;21005;-66
2021/07/26 17:12:52;;;;;;;6.80;5.95;;;;;;;27.38;66.49;99670.80;2735795;86;21027;-64
2021/07/26 17:17:32;;;;;;;9.00;5.62;;;;;;;26.90;66.29;99671.20;2714757;87;21008;-65
2021/07/26 17:21:36;;;;;;;9.40;6.03;;;;;;;26.54;66.72;99678.81;2636362;90;21032;-64
2021/07/26 17:25:38;;;;;;;8.18;5.05;;;;;;;26.09;67.40;99688.06;2642917;87;21044;-65
2021/07/26 17:30:17;;;;;;;5.25;4.75;;;;;;;25.71;69.37;99694.94;2601593;91;21091;-65
2021/07/26 17:34:20;;;;;;;7.10;4.85;;;;;;;25.30;71.50;99696.23;2601238;91;21032;-64
2021/07/26 17:38:56;;;;;;;8.08;5.75;;;;;;;24.89;73.74;99710.25;2601294;91;21079;-64
2021/07/26 17:42:58;;;;;;;5.85;5.00;;;;;;;24.56;75.72;99715.66;2605822;90;21065;-64
2021/07/26 17:47:36;;;;;;;8.05;6.03;;;;;;;24.21;77.33;99719.37;2576410;92;21053;-64
2021/07/26 17:51:40;;;;;;;8.93;6.53;;;;;;;23.99;79.03;99716.31;2596537;91;21070;-65
2021/07/26 17:55:44;;;;;;;10.45;7.33;;;;;;;23.76;80.61;99713.75;2621819;91;21070;-64
2021/07/26 18:00:19;;;;;;;10.00;6.17;;;;;;;23.70;81.21;99709.23;2621765;91;21034;-64
2021/07/26 18:04:21;;;;;;;9.80;6.40;;;;;;;23.63;81.80;99711.20;2646285;90;21043;-64
2021/07/26 18:08:24;;;;;;;10.88;6.75;;;;;;;23.60;81.94;99707.59;2644544;90;21058;-64
2021/07/26 18:12:29;;;;;;;14.75;7.25;;;;;;;23.60;82.03;99715.20;2697330;86;21090;-64
2021/07/26 18:16:32;;;;;;;8.40;6.00;;;;;;;23.50;82.30;99740.69;2704390;88;21060;-65
2021/07/26 18:20:39;;;;;;;6.20;5.60;;;;;;;23.39;83.11;99765.33;2704664;88;21059;-65
2021/07/26 18:24:41;;;;;;;9.38;7.42;;;;;;;23.33;84.17;99809.10;2743089;86;21023;-69
2021/07/26 18:28:47;;;;;;;9.50;6.50;;;;;;;23.00;85.03;99814.77;2753155;85;21062;-66
2021/07/26 18:32:50;;;;;;;10.15;5.83;;;;;;;22.68;85.46;99823.19;2754848;86;21082;-66
2021/07/26 18:36:57;;;;;;;8.70;6.47;;;;;;;22.60;86.19;99842.94;2735406;86;21039;-65
2021/07/26 18:40:59;;;;;;;11.25;7.50;;;;;;;22.65;86.04;99866.99;2747447;86;21059;-65
2021/07/26 18:45:08;;;;;;;11.93;7.05;;;;;;;22.68;86.25;99882.82;2709981;87;21027;-66
2021/07/26 18:49:05;;;;;;;12.18;7.65;;;;;;;22.77;87.98;99887.98;2742522;86;21591;-66
2021/07/26 18:53:07;;;;;;;8.48;7.65;;;;;;;22.85;88.89;99886.39;2743856;86;21031;-66
2021/07/26 18:57:09;;;;;;;7.95;6.45;;;;;;;22.89;89.43;99902.53;2744146;86;21020;-64